Terminal Aerodrome Forecast
Issued by NWS

Home | Current Version | Previous Version | Text Only | Print | Product List | Glossary On
Versions: 1 2 3 4 5 6 7 8 9 10 11 12 13 14 15 16 17 18 19 20 21 22 23 24 25 26 27 28 29 30
000
FTPA31 PHFO 211700
TAFOGG
TAF
PHOG 211726Z 2118/2218 13004KT P6SM FEW040
     FM212000 05012G18KT P6SM FEW030 SCT050
     FM220500 05008KT P6SM FEW040
     FM221000 12005KT P6SM FEW040
      AMD LTD TO WX VIS AND WIND 2209/2216=

USA.gov is the U.S. government's official web portal to all federal, state and local government web resources and services.